Ponce, PR (00731)

10:27 PM AST on July 25, 2016 (GMT -0400)
City | | Change Station

Elev 36 ft 18.00 °N, 66.64 °W | Updated 9 seconds ago

Mostly Cloudy
Mostly Cloudy
83.5 °F
Feels Like 91 °F
N
2.2
Wind Variable Wind from East
Gusts 3.8 mph

Today
High -- | Low -- °F
--% Chance of Precip.
Yesterday
High -- | Low -- °F
Precip. -- in
Pressure 30.04 in
Visibility 10.0 miles
Clouds Scattered Clouds 2300 ft
Scattered Clouds 2900 ft
Mostly Cloudy 3600 ft
Heat Index 91 °F
Dew Point 75 °F
Humidity 76%
Rainfall 0.00 in
Snow Depth Not available.
6:02 AM 7:03 PM
Waning Gibbous, 60% visible
METAR TJBQ 260050Z 09012KT 10SM SCT023 SCT029 BKN036 26/23 A3004 RMK LAST
Pressure 30.04 in
Visibility 10.0 miles
Clouds Scattered Clouds 2300 ft
Scattered Clouds 2900 ft
Mostly Cloudy 3600 ft
Heat Index 91 °F
Dew Point 75 °F
Humidity 76%
Rainfall 0.00 in
Snow Depth Not available.
6:02 AM 7:03 PM
Waning Gibbous, 60% visible
METAR TJBQ 260050Z 09012KT 10SM SCT023 SCT029 BKN036 26/23 A3004 RMK LAST

10-Day Weather Forecast

Almanac

Astronomy

Jul. 25, 2016 Rise Set
Actual Time
Civil Twilight
Nautical Twilight
Astronomical Twilight
Moon
Length of Visible Light
Length of Day
Tomorrow will be .
, % of the Moon is Illuminated

Today's Extremes

State Highs State Lows

Community

WunderPhotos

Upload Photos

1,927,503 photos uploaded!

WunderBlog® & News

Nearby

Air Quality

  Air Quality AQ Index Pollutant
Not available.

Snow Depth

Station Depth Elevation

Earthquake Activity

City Distance Mag. Time & Date
Minimum magnitude displayed is 2.5.

Coastal Water Temperatures

Place Temperature

Stations

Nearby Weather Stations

Station Location Temp. Windchill Dew Point Humidity Wind Precip. Elev Updated Type
                   

Watches & Warnings

There are currently no watches in effect.